< < Back
Terminal Aerodrome Forecast


Current Version              Previous Versions:   1  2  3  4  5  6  7  8  9  

Terminal Aerodrome Forecast

162
FTUS42 KCAE 280500
TAFCAE
TAF
KCAE 280525Z 2806/2906 32005KT P6SM SKC
     FM281400 35008G15KT P6SM SKC
     FM281700 36008KT P6SM SKC
     FM282200 VRB03KT P6SM SKC=



Latest METAR

703
SAUS80 KWBC 281600
MTRCAE
METAR KCAE 281556Z 02009KT 10SM CLR 06/M09 A3029 RMK AO2 SLP256
T00561094


USA.gov is the U.S. government's official web portal to all federal, state and local government web resources and services.